Latest Weather Observations for Garden Island

IDW60901

Issued at 1:01 pm WST Tuesday 19 January 2021 (issued every 10 minutes, with the page automatically refreshed every 10 minutes)

About weather observations | Map of Perth area stations | Latest observations for Perth area | Other Formats
Station Details ID: 009256 Name: GARDEN ISLAND HSF Lat: -32.24 Lon: 115.68 Height: 6.0 m
Data from the previous 72 hours. | See also: Recent months at Garden Island
Date/Time
WST
Temp
°C
App
Temp
°C
Dew
Point
°C
Rel
Hum
%
Delta-T
°C
Wind Press
QNH
hPa
Press
MSL
hPa
Rain since
9am
mm
Dir  Spd
km/h
Gust
km/h
Spd
kts
Gust
kts
19/01:00pm 27.6 28.8 19.9 63 5.0 W 13 17 7 9 1009.3 1009.3 0.0
19/12:30pm 27.6 28.6 19.4 61 5.3 WNW 13 15 7 8 1009.5 1009.5 0.0
19/12:00pm 27.9 28.5 18.6 57 6.0 W 13 17 7 9 1009.6 1009.6 0.0
19/11:30am 27.7 28.3 17.8 54 6.3 W 11 15 6 8 1009.9 1009.9 0.0
19/11:00am 28.0 28.9 18.4 56 6.1 W 11 13 6 7 1010.1 1010.1 0.0
19/10:30am 27.7 29.0 18.4 57 5.9 SW 9 11 5 6 1010.3 1010.3 0.0
19/10:00am 26.5 27.8 19.4 65 4.6 SSW 11 11 6 6 1010.4 1010.4 0.0
19/09:30am 26.2 28.0 19.6 67 4.3 SSW 9 11 5 6 1010.7 1010.7 0.0
19/09:00am 25.5 27.5 19.2 68 4.0 S 7 9 4 5 1011.0 1011.0 0.0
19/08:30am 25.8 28.5 20.6 73 3.4 S 7 9 4 5 1011.2 1011.2 0.0
19/08:00am 25.0 27.6 20.5 76 2.9 SSW 7 9 4 5 1011.3 1011.3 0.0
19/07:30am 24.9 26.9 19.1 70 3.7 SW 7 9 4 5 1011.2 1011.2 0.0
19/07:00am 24.6 26.7 19.4 73 3.3 W 7 9 4 5 1011.1 1011.1 0.0
19/06:30am 23.9 25.7 19.6 77 2.8 WNW 9 11 5 6 1010.9 1010.9 0.0
19/06:00am 23.6 25.4 19.5 78 2.6 W 9 11 5 6 1010.7 1010.7 0.0
19/05:30am 24.0 25.4 19.5 76 2.9 WNW 11 17 6 9 1010.6 1010.6 0.0
19/05:00am 24.9 25.1 17.6 64 4.6 NNW 13 17 7 9 1010.5 1010.5 0.0
19/04:30am 25.3 24.8 15.0 53 6.2 ENE 11 15 6 8 1009.7 1009.7 0.0
19/04:00am 25.5 25.0 15.8 55 5.9 ENE 13 15 7 8 1009.8 1009.8 0.0
19/03:30am 26.1 24.1 13.9 47 7.2 NE 17 22 9 12 1009.8 1009.8 0.0
19/03:00am 25.6 24.4 14.1 49 6.8 NNE 13 15 7 8 1010.1 1010.1 0.0
19/02:30am 25.3 24.7 15.6 55 5.9 NE 13 17 7 9 1010.1 1010.1 0.0
19/02:00am 25.4 24.7 15.4 54 6.1 NE 13 15 7 8 1010.1 1010.1 0.0
19/01:30am 26.0 25.1 14.8 50 6.7 NE 13 17 7 9 1010.4 1010.4 0.0
19/01:00am 26.2 25.5 15.3 51 6.6 NE 13 17 7 9 1010.8 1010.8 0.0
19/12:30am 26.5 25.5 14.6 48 7.1 NNE 13 17 7 9 1011.2 1011.2 0.0
19/12:00am 26.5 25.1 14.6 48 7.1 NE 15 20 8 11 1011.4 1011.4 0.0
 
Date/Time
WST
Temp
°C
App
Temp
°C
Dew
Point
°C
Rel
Hum
%
Delta-T
°C
Wind Press
QNH
hPa
Press
MSL
hPa
Rain since
9am
mm
Dir  Spd
km/h
Gust
km/h
Spd
kts
Gust
kts
18/11:30pm 26.4 25.1 14.8 49 7.0 NE 15 20 8 11 1011.5 1011.5 0.0
18/11:00pm 26.3 25.5 15.0 49 6.8 NE 13 20 7 11 1011.5 1011.5 0.0
18/10:30pm 25.6 25.2 16.2 56 5.8 NNE 13 17 7 9 1011.7 1011.7 0.0
18/10:00pm 25.9 25.0 15.9 54 6.1 NE 15 19 8 10 1011.8 1011.8 0.0
18/09:30pm 26.2 25.0 16.2 54 6.1 NE 17 20 9 11 1011.9 1011.9 0.0
18/09:00pm 26.0 25.8 16.8 57 5.7 NE 13 17 7 9 1011.9 1011.9 0.0
18/08:30pm 26.7 25.6 16.3 53 6.4 NE 17 26 9 14 1011.7 1011.7 0.0
18/08:00pm 27.3 24.5 15.3 48 7.3 NNE 24 32 13 17 1011.4 1011.4 0.0
18/07:30pm 27.3 24.3 14.7 46 7.6 NNE 24 35 13 19 1011.5 1011.5 0.0
18/07:00pm 26.9 24.4 16.2 52 6.6 N 24 33 13 18 1011.6 1011.6 0.0
18/06:30pm 27.5 23.9 15.2 47 7.5 N 28 35 15 19 1011.4 1011.4 0.0
18/06:00pm 26.9 24.3 16.8 54 6.3 NNW 26 35 14 19 1011.4 1011.4 0.0
18/05:30pm 26.8 24.6 18.6 60 5.2 NNW 28 37 15 20 1011.2 1011.2 0.0
18/05:00pm 31.1 26.9 13.4 34 10.6 N 28 39 15 21 1010.9 1010.9 0.0
18/04:30pm 29.6 27.2 15.3 41 8.8 N 22 35 12 19 1011.3 1011.3 0.0
18/04:00pm 32.5 30.1 12.7 30 11.8 NNE 17 24 9 13 1011.2 1011.2 0.0
18/03:30pm 33.1 31.1 12.7 29 12.2 NNE 15 20 8 11 1011.5 1011.5 0.0
18/03:00pm 34.5 31.4 12.2 26 13.3 NNE 20 28 11 15 1011.6 1011.6 0.0
18/02:30pm 33.7 30.7 13.7 30 12.2 NNE 22 32 12 17 1011.9 1011.9 0.0
18/02:00pm 33.4 30.0 12.4 28 12.5 NNE 22 30 12 16 1011.9 1011.9 0.0
18/01:30pm 33.1 29.4 11.6 27 12.6 NE 22 32 12 17 1011.9 1011.9 0.0
18/01:00pm 33.5 29.0 10.2 24 13.4 NE 24 33 13 18 1012.3 1012.3 0.0
18/12:30pm 33.2 29.4 11.1 26 12.9 NE 22 33 12 18 1012.7 1012.7 0.0
18/12:00pm 31.9 27.7 11.1 28 12.1 NE 24 32 13 17 1013.1 1013.1 0.0
18/11:30am 31.7 27.7 10.4 27 12.2 NNE 22 32 12 17 1013.6 1013.6 0.0
18/11:00am 32.3 27.6 9.2 24 13.0 NNE 24 35 13 19 1013.8 1013.8 0.0
18/10:30am 29.9 24.1 7.8 25 12.0 NNE 28 39 15 21 1014.0 1014.0 0.0
18/10:00am 29.5 24.1 8.0 26 11.7 NNE 26 37 14 20 1014.0 1014.0 0.0
18/09:30am 29.6 24.6 8.1 26 11.8 NNE 24 35 13 19 1014.1 1014.1 0.0
18/09:00am 28.9 24.5 9.1 29 11.0 NE 22 30 12 16 1014.3 1014.3 0.0
18/08:30am 26.9 21.9 7.9 30 10.2 NE 24 33 13 18 1014.6 1014.6 0.0
18/08:00am 27.0 22.4 8.0 30 10.2 NE 22 32 12 17 1014.7 1014.7 0.0
18/07:30am 25.7 20.5 7.3 31 9.7 ENE 24 32 13 17 1014.8 1014.8 0.0
18/07:00am 25.0 19.6 6.2 30 9.7 ENE 24 35 13 19 1015.0 1015.0 0.0
18/06:30am 24.5 19.7 7.2 33 9.1 ENE 22 30 12 16 1014.8 1014.8 0.0
18/06:00am 24.4 19.6 7.5 34 8.9 ENE 22 33 12 18 1014.5 1014.5 0.0
18/05:30am 24.8 19.6 7.4 33 9.2 ENE 24 33 13 18 1014.1 1014.1 0.0
18/05:00am 25.0 19.9 6.2 30 9.7 ENE 22 30 12 16 1013.7 1013.7 0.0
18/04:30am 25.3 20.3 6.5 30 9.8 ENE 22 32 12 17 1013.0 1013.0 0.0
18/04:00am 25.5 21.2 7.1 31 9.7 ENE 19 32 10 17 1012.9 1012.9 0.0
18/03:30am 25.2 20.9 6.9 31 9.6 ENE 19 26 10 14 1012.9 1012.9 0.0
18/03:00am 25.2 21.3 6.9 31 9.6 E 17 24 9 13 1013.0 1013.0 0.0
18/02:30am 25.2 21.3 6.9 31 9.6 E 17 22 9 12 1012.8 1012.8 0.0
18/02:00am 25.6 21.5 6.3 29 10.0 E 17 26 9 14 1012.8 1012.8 0.0
18/01:30am 26.5 21.2 4.9 25 11.0 E 22 33 12 18 1012.9 1012.9 0.0
18/01:00am 26.3 22.4 6.9 29 10.2 ESE 17 24 9 13 1012.9 1012.9 0.0
18/12:30am 26.7 22.6 6.2 27 10.7 E 17 22 9 12 1012.9 1012.9 0.0
18/12:00am 27.0 22.8 5.9 26 10.9 ESE 17 24 9 13 1013.2 1013.2 0.0
 
Date/Time
WST
Temp
°C
App
Temp
°C
Dew
Point
°C
Rel
Hum
%
Delta-T
°C
Wind Press
QNH
hPa
Press
MSL
hPa
Rain since
9am
mm
Dir  Spd
km/h
Gust
km/h
Spd
kts
Gust
kts
17/11:30pm 26.8 23.1 7.8 30 10.2 E 17 24 9 13 1013.2 1013.2 0.0
17/11:00pm 26.6 23.8 8.6 32 9.8 ESE 13 19 7 10 1013.5 1013.5 0.0
17/10:30pm 27.0 23.7 6.4 27 10.8 ESE 13 17 7 9 1013.7 1013.7 0.0
17/10:00pm 27.2 24.2 7.6 29 10.5 ESE 13 17 7 9 1013.6 1013.6 0.0
17/09:30pm 27.9 24.4 7.2 27 11.0 ESE 15 20 8 11 1013.7 1013.7 0.0
17/09:00pm 28.3 24.4 7.0 26 11.4 ESE 17 24 9 13 1013.4 1013.4 0.0
17/08:30pm 28.6 25.6 9.3 30 10.7 ESE 15 17 8 9 1013.5 1013.5 0.0
17/08:00pm 29.2 26.2 9.3 29 11.1 ESE 15 20 8 11 1013.5 1013.5 0.0
17/07:30pm 30.2 26.6 6.8 23 12.6 E 15 19 8 10 1013.5 1013.5 0.0
17/07:00pm 30.7 27.5 8.4 25 12.3 E 15 20 8 11 1013.2 1013.2 0.0
17/06:30pm 31.6 27.7 7.3 22 13.2 E 17 22 9 12 1013.1 1013.1 0.0
17/06:00pm 33.4 29.6 7.4 20 14.3 E 17 22 9 12 1012.8 1012.8 0.0
17/05:30pm 34.5 30.1 6.7 18 15.2 E 19 26 10 14 1012.5 1012.5 0.0
17/05:00pm 35.1 30.7 4.6 15 16.2 E 17 24 9 13 1012.7 1012.7 0.0
17/04:30pm 35.5 30.6 3.9 14 16.7 E 19 24 10 13 1013.0 1013.0 0.0
17/04:00pm 35.8 31.9 7.0 17 16.0 ESE 17 26 9 14 1013.3 1013.3 0.0
17/03:30pm 35.8 31.3 6.1 16 16.2 E 19 26 10 14 1013.5 1013.5 0.0
17/03:00pm 35.4 31.6 7.5 18 15.5 ESE 17 20 9 11 1014.0 1014.0 0.0
17/02:30pm 36.3 32.5 7.4 17 16.2 E 17 24 9 13 1014.2 1014.2 0.0
17/02:00pm 36.3 32.1 7.4 17 16.1 E 19 28 10 15 1014.6 1014.6 0.0
17/01:30pm 35.0 30.7 7.1 18 15.4 E 19 26 10 14 1014.8 1014.8 0.0
17/01:00pm 34.9 30.8 8.6 20 14.9 ENE 20 30 11 16 1015.0 1015.0 0.0
17/12:30pm 34.0 29.5 8.6 21 14.3 ENE 22 30 12 16 1015.4 1015.4 0.0
17/12:00pm 33.4 29.7 9.4 23 13.6 ENE 19 30 10 16 1015.8 1015.8 0.0
17/11:30am 33.7 30.6 10.3 24 13.5 ENE 17 28 9 15 1016.3 1016.3 0.0
17/11:00am 32.5 28.7 9.9 25 12.9 ENE 20 28 11 15 1016.3 1016.3 0.0
17/10:30am 30.7 26.6 10.1 28 11.7 ENE 22 35 12 19 1016.3 1016.3 0.0
17/10:00am 29.3 23.6 8.4 27 11.5 ENE 28 41 15 22 1016.3 1016.3 0.0
17/09:30am 28.1 22.0 8.4 29 10.7 ENE 30 43 16 23 1016.7 1016.7 0.0
17/09:00am 26.9 20.8 8.4 31 10.0 ENE 30 43 16 23 1016.8 1016.8 0.0
17/08:30am 26.0 19.5 8.0 32 9.6 ENE 32 44 17 24 1017.0 1017.0 0.0
17/08:15am 25.1 18.4 7.3 32 9.4 ENE 32 50 17 27 1017.1 1017.1 0.0
17/08:00am 24.8 18.0 7.9 34 9.0 ENE 33 46 18 25 1017.3 1017.3 0.0
17/07:39am 24.4 17.7 7.5 34 8.9 ENE 32 50 17 27 1017.3 1017.3 0.0
17/07:30am 24.0 17.4 7.6 35 8.6 ENE 32 46 17 25 1017.2 1017.2 0.0
17/07:05am 23.2 17.3 7.7 37 8.1 ENE 28 48 15 26 1017.1 1017.1 0.0
17/07:00am 23.1 18.0 9.1 41 7.5 ENE 26 41 14 22 1017.1 1017.1 0.0
17/06:30am 21.6 16.5 9.2 45 6.6 E 26 39 14 21 1016.9 1016.9 0.0
17/06:00am 20.8 15.2 8.8 46 6.3 E 28 43 15 23 1016.8 1016.8 0.0
17/05:30am 20.3 15.6 9.2 49 5.9 E 24 33 13 18 1016.8 1016.8 0.0
17/05:00am 20.2 16.0 9.7 51 5.6 E 22 35 12 19 1016.3 1016.3 0.0
17/04:30am 20.4 15.8 9.6 50 5.8 E 24 41 13 22 1016.1 1016.1 0.0
17/04:00am 20.5 15.9 9.7 50 5.8 E 24 39 13 21 1015.8 1015.8 0.0
17/03:30am 20.6 15.9 9.2 48 6.0 E 24 35 13 19 1015.6 1015.6 0.0
17/03:00am 20.5 16.2 9.4 49 5.9 E 22 35 12 19 1015.6 1015.6 0.0
17/02:30am 21.0 16.5 9.9 49 6.0 E 24 37 13 20 1015.5 1015.5 0.0
17/02:00am 21.3 16.8 10.2 49 6.0 E 24 33 13 18 1015.6 1015.6 0.0
17/01:30am 21.7 16.6 10.5 49 6.1 E 28 39 15 21 1015.6 1015.6 0.0
17/01:00am 22.0 16.9 10.5 48 6.3 E 28 44 15 24 1015.6 1015.6 0.0
17/12:30am 22.7 16.6 9.8 44 7.0 E 32 44 17 24 1015.6 1015.6 0.0
17/12:07am 23.2 17.7 9.2 41 7.5 ESE 28 46 15 25 1015.6 1015.6 0.0
17/12:00am 23.4 18.1 9.8 42 7.4 ESE 28 43 15 23 1015.6 1015.6 0.0
 
Date/Time
WST
Temp
°C
App
Temp
°C
Dew
Point
°C
Rel
Hum
%
Delta-T
°C
Wind Press
QNH
hPa
Press
MSL
hPa
Rain since
9am
mm
Dir  Spd
km/h
Gust
km/h
Spd
kts
Gust
kts
16/11:32pm 24.3 17.9 9.5 39 8.1 E 33 52 18 28 1015.4 1015.4 0.0
16/11:30pm 24.4 17.3 8.0 35 8.7 E 35 52 19 28 1015.4 1015.4 0.0
16/11:00pm 25.4 19.0 7.1 31 9.6 ESE 30 43 16 23 1015.2 1015.2 0.0
16/10:34pm 26.8 20.0 3.3 22 11.6 ESE 28 46 15 25 1014.9 1014.9 0.0
16/10:30pm 26.4 20.8 5.4 26 10.8 E 24 32 13 17 1014.9 1014.9 0.0
16/10:00pm 27.2 21.0 4.3 23 11.6 E 26 35 14 19 1014.6 1014.6 0.0
16/09:30pm 27.4 21.2 4.5 23 11.6 ESE 26 39 14 21 1014.4 1014.4 0.0
16/09:00pm 27.8 22.2 5.4 24 11.6 ESE 24 39 13 21 1014.1 1014.1 0.0
16/08:30pm 28.2 22.5 5.1 23 11.9 ESE 24 35 13 19 1014.0 1014.0 0.0
16/08:00pm 28.5 23.0 6.0 24 11.8 ESE 24 37 13 20 1013.7 1013.7 0.0
16/07:30pm 29.1 23.7 6.5 24 12.0 ESE 24 33 13 18 1013.5 1013.5 0.0
16/07:00pm 29.6 23.6 6.9 24 12.2 ESE 28 35 15 19 1013.2 1013.2 0.0
16/06:30pm 30.4 24.5 7.6 24 12.4 ESE 28 39 15 21 1013.1 1013.1 0.0
16/06:00pm 30.5 26.1 8.8 26 12.1 E 22 30 12 16 1013.0 1013.0 0.0
16/05:30pm 31.2 27.3 9.4 26 12.3 E 20 30 11 16 1013.0 1013.0 0.0
16/05:00pm 32.3 28.4 8.5 23 13.3 E 19 28 10 15 1013.0 1013.0 0.0
16/04:30pm 31.8 27.3 8.7 24 12.9 E 22 32 12 17 1013.0 1013.0 0.0
16/04:00pm 32.1 27.7 9.0 24 13.0 ESE 22 33 12 18 1013.3 1013.3 0.0
16/03:30pm 32.3 28.0 9.2 24 13.0 ESE 22 30 12 16 1013.5 1013.5 0.0
16/03:00pm 32.1 27.3 9.0 24 13.0 ESE 24 32 13 17 1013.9 1013.9 0.0
16/02:30pm 32.0 27.6 8.9 24 13.0 ESE 22 32 12 17 1014.1 1014.1 0.0
16/02:00pm 32.0 27.7 9.5 25 12.7 E 22 30 12 16 1014.5 1014.5 0.0
16/01:30pm 32.0 28.5 12.3 30 11.6 E 22 32 12 17 1014.8 1014.8 0.0

Latest Capital City Observations: Canberra | Sydney | Melbourne | Brisbane | Adelaide | Perth | Hobart | Darwin

Other formats

Comma delimited format used in spreadsheet applications
http://www.bom.gov.au/fwo/IDW60901/IDW60901.95607.axf

JavaScript Object Notation format (JSON) in row-major order
http://www.bom.gov.au/fwo/IDW60901/IDW60901.95607.json

Data quality

Most of these data are generated automatically and are frequently updated. Quality checks on data are not normally performed. It is possible for incorrect values to appear. Refer to information at About Latest Weather Observations and please check the disclaimer before using these data.